Time;durP1;ratioP1;P1;durP2;ratioP2;P2;SDS_P1;SDS_P2;PMS_P1;PMS_P2;Temp;Humidity;BMP_temperature;BMP_pressure;BME280_temperature;BME280_humidity;BME280_pressure;Samples;Min_cycle;Max_cycle;Signal;HPM_P1;HPM_P2
2022/01/15 00:00:45;;;;;;;6.17;4.33;;;;;;;4.99;71.68;96870.00;5093330;28;20796;-32
2022/01/15 00:03:14;;;;;;;10.30;5.90;;;;;;;4.98;71.74;96872.84;5093752;28;20465;-30
2022/01/15 00:05:44;;;;;;;7.73;4.17;;;;;;;4.99;71.82;96879.72;5093568;28;20538;-30
2022/01/15 00:08:11;;;;;;;9.27;5.40;;;;;;;4.95;71.81;96878.47;5093530;28;20443;-31
2022/01/15 00:10:39;;;;;;;14.40;6.00;;;;;;;4.93;71.97;96897.91;5093276;28;20485;-31
2022/01/15 00:13:13;;;;;;;19.27;7.50;;;;;;;4.93;72.41;96891.84;5093271;28;20806;-30
2022/01/15 00:15:47;;;;;;;7.53;4.50;;;;;;;4.93;72.29;96895.28;5096533;28;20438;-31
2022/01/15 00:18:17;;;;;;;6.80;3.30;;;;;;;4.93;72.58;96892.66;5097385;28;20430;-31
2022/01/15 00:20:45;;;;;;;8.80;5.17;;;;;;;4.91;73.12;96899.13;5097253;28;20447;-30
2022/01/15 00:23:13;;;;;;;7.90;4.87;;;;;;;4.90;73.21;96900.97;5097622;28;20813;-30
2022/01/15 00:25:40;;;;;;;13.60;6.10;;;;;;;4.91;73.42;96896.50;5097089;28;20486;-31
2022/01/15 00:28:07;;;;;;;19.13;7.60;;;;;;;4.90;73.16;96902.75;5097134;28;20812;-30
2022/01/15 00:30:34;;;;;;;11.93;5.53;;;;;;;4.90;73.27;96898.34;5096953;28;20438;-31
2022/01/15 00:33:02;;;;;;;8.40;5.30;;;;;;;4.90;73.19;96908.84;5097431;28;20449;-31
2022/01/15 00:35:29;;;;;;;10.50;5.07;;;;;;;4.89;73.56;96890.63;5097023;28;20443;-30
2022/01/15 00:37:58;;;;;;;17.40;7.77;;;;;;;4.84;73.75;96885.97;5097280;28;20439;-30
2022/01/15 00:40:25;;;;;;;13.63;5.70;;;;;;;4.85;74.00;96895.47;5096934;28;20474;-31
2022/01/15 00:42:52;;;;;;;16.40;8.33;;;;;;;4.84;74.15;96899.13;5096852;28;20443;-31
2022/01/15 00:45:22;;;;;;;33.30;15.13;;;;;;;4.77;74.28;96908.78;5096750;28;21123;-30
2022/01/15 00:47:50;;;;;;;21.30;10.77;;;;;;;4.77;74.40;96903.53;5097008;28;20447;-30
2022/01/15 00:50:18;;;;;;;21.43;9.50;;;;;;;4.76;74.69;96896.66;5097540;28;20526;-30
2022/01/15 00:52:45;;;;;;;11.63;8.10;;;;;;;4.74;75.01;96897.84;5096694;28;20443;-31
2022/01/15 00:55:15;;;;;;;12.83;7.57;;;;;;;4.71;75.11;96906.94;5096965;28;20510;-30
2022/01/15 00:57:42;;;;;;;13.23;7.53;;;;;;;4.73;75.48;96902.28;5096615;28;20899;-31
2022/01/15 01:00:13;;;;;;;9.70;6.40;;;;;;;4.76;75.57;96901.91;5096872;28;20450;-31
2022/01/15 01:02:41;;;;;;;8.57;4.90;;;;;;;4.80;75.56;96907.59;5096819;28;20431;-31
2022/01/15 01:05:09;;;;;;;11.27;4.87;;;;;;;4.77;75.74;96903.53;5096675;28;20482;-31
2022/01/15 01:07:36;;;;;;;6.53;4.60;;;;;;;4.74;76.08;96896.03;5096413;28;20446;-30
2022/01/15 01:10:18;;;;;;;7.33;3.83;;;;;;;4.67;76.20;96892.56;5096680;28;20942;-32
2022/01/15 01:13:09;;;;;;;6.47;3.87;;;;;;;4.76;76.17;96901.91;5096321;28;20435;-30
2022/01/15 01:21:31;;;;;;;8.20;4.33;;;;;;;4.78;76.74;96899.91;5096283;28;20434;-31
2022/01/15 01:23:55;;;;;;;7.20;4.43;;;;;;;4.76;76.94;96907.16;5096038;28;20439;-30
2022/01/15 01:26:28;;;;;;;8.00;3.77;;;;;;;4.73;77.07;96910.19;5095219;28;20516;-31
2022/01/15 01:29:06;;;;;;;12.27;6.07;;;;;;;4.71;77.17;96901.66;5096359;28;20510;-30
2022/01/15 01:31:37;;;;;;;12.50;5.50;;;;;;;4.69;77.34;96895.81;5096269;28;20509;-30
2022/01/15 01:34:09;;;;;;;10.80;6.30;;;;;;;4.66;77.74;96896.19;5096279;28;20481;-30
2022/01/15 01:36:44;;;;;;;9.83;5.23;;;;;;;4.65;77.94;96910.38;5096221;28;20435;-30
2022/01/15 01:39:17;;;;;;;11.03;5.60;;;;;;;4.59;78.36;96900.63;5095924;28;20423;-30
2022/01/15 01:41:53;;;;;;;8.50;4.00;;;;;;;4.56;78.48;96912.34;5095774;28;20515;-30
2022/01/15 01:44:25;;;;;;;6.83;4.20;;;;;;;4.56;78.75;96914.16;5095723;28;20431;-30
2022/01/15 01:47:02;;;;;;;9.13;5.20;;;;;;;4.55;78.69;96909.91;5095642;28;20996;-30
2022/01/15 01:49:29;;;;;;;10.73;5.53;;;;;;;4.51;78.67;96907.66;5095758;28;20427;-30
2022/01/15 01:51:57;;;;;;;7.73;5.97;;;;;;;4.55;79.38;96910.72;5095894;28;20807;-30
2022/01/15 01:54:24;;;;;;;12.60;5.07;;;;;;;4.49;80.04;96920.19;5095589;28;20445;-30
2022/01/15 01:56:51;;;;;;;14.23;5.87;;;;;;;4.51;79.86;96906.84;5095240;28;20483;-31
2022/01/15 01:59:18;;;;;;;6.70;4.97;;;;;;;4.49;80.04;96922.81;5095407;28;20443;-30
2022/01/15 02:01:47;;;;;;;8.53;5.60;;;;;;;4.49;80.25;96922.81;5095391;28;20447;-32
2022/01/15 02:04:14;;;;;;;8.20;4.23;;;;;;;4.57;80.54;96934.19;5095615;28;20439;-32
2022/01/15 02:06:42;;;;;;;11.10;5.77;;;;;;;4.51;80.45;96923.44;5095184;28;20490;-32
2022/01/15 02:09:09;;;;;;;7.33;5.00;;;;;;;4.50;80.82;96924.44;5095180;28;20443;-32
2022/01/15 02:11:39;;;;;;;13.60;6.83;;;;;;;4.47;81.14;96918.75;5095133;28;20443;-32
2022/01/15 02:14:06;;;;;;;15.80;7.60;;;;;;;4.43;81.46;96920.97;5095387;28;20841;-32
2022/01/15 02:16:34;;;;;;;11.40;5.77;;;;;;;4.40;82.01;96918.72;5095440;28;20439;-33
2022/01/15 02:19:02;;;;;;;11.27;5.80;;;;;;;4.45;82.02;96936.53;5095895;28;20449;-31
2022/01/15 02:24:18;;;;;;;15.87;6.90;;;;;;;4.43;82.36;96923.63;5068902;28;20435;-32
2022/01/15 02:26:45;;;;;;;14.30;6.97;;;;;;;4.36;82.88;96921.94;5094804;28;20486;-32
2022/01/15 02:29:13;;;;;;;9.30;5.13;;;;;;;4.36;82.99;96928.00;5094733;28;20450;-31
2022/01/15 02:31:40;;;;;;;9.70;5.57;;;;;;;4.37;83.19;96921.75;5094692;28;20797;-31
2022/01/15 02:34:08;;;;;;;12.73;6.47;;;;;;;4.38;83.14;96930.44;5094711;28;20526;-31
2022/01/15 02:36:37;;;;;;;16.20;6.47;;;;;;;4.36;82.95;96930.63;5094674;28;20439;-32
2022/01/15 02:39:06;;;;;;;21.03;6.57;;;;;;;4.38;82.93;96928.63;5094001;28;20442;-31
2022/01/15 02:41:35;;;;;;;18.90;7.40;;;;;;;4.36;83.13;96933.25;5094609;28;20529;-32
2022/01/15 02:44:06;;;;;;;13.83;8.47;;;;;;;4.41;82.59;96936.13;5094493;28;20537;-31
2022/01/15 02:48:00;;;;;;;10.47;6.43;;;;;;;4.36;83.17;96927.19;5094482;28;20475;-31
2022/01/15 02:49:24;;;;;;;11.77;6.23;;;;;;;4.30;83.41;96923.50;5094507;28;20465;-32
2022/01/15 02:51:53;;;;;;;12.63;6.60;;;;;;;4.34;83.30;96927.38;5094327;28;20931;-31
2022/01/15 02:54:20;;;;;;;14.13;7.80;;;;;;;4.33;83.62;96953.88;5094681;28;20443;-31
2022/01/15 02:56:48;;;;;;;23.87;9.70;;;;;;;4.36;83.49;96956.91;5094136;28;20478;-31
2022/01/15 02:59:20;;;;;;;13.83;8.53;;;;;;;4.34;83.56;96964.19;5094261;28;20443;-31
2022/01/15 03:01:49;;;;;;;23.30;7.90;;;;;;;4.28;83.36;96965.78;5094225;28;20434;-31
2022/01/15 03:04:16;;;;;;;19.43;7.77;;;;;;;4.17;83.80;96952.34;5094421;28;20838;-31
2022/01/15 03:06:43;;;;;;;19.70;12.47;;;;;;;4.25;83.55;96967.97;5093981;28;20490;-32
2022/01/15 03:09:12;;;;;;;16.43;8.33;;;;;;;4.25;83.64;96976.66;5094357;28;20438;-32
2022/01/15 03:11:40;;;;;;;10.93;6.73;;;;;;;4.29;83.53;96977.91;5094132;28;20435;-31
2022/01/15 03:14:07;;;;;;;17.97;9.33;;;;;;;4.30;83.63;96973.44;5094299;28;20450;-33
2022/01/15 03:16:35;;;;;;;15.13;7.53;;;;;;;4.26;83.84;96975.66;5094290;28;20450;-32
2022/01/15 03:19:02;;;;;;;15.67;9.17;;;;;;;4.28;83.67;96988.59;5093857;28;20439;-32
2022/01/15 03:21:29;;;;;;;14.40;8.27;;;;;;;4.26;83.80;96977.50;5093882;28;20446;-32
2022/01/15 03:23:56;;;;;;;18.87;9.60;;;;;;;4.21;84.34;96987.75;5093844;28;20941;-32
2022/01/15 03:26:25;;;;;;;11.17;7.93;;;;;;;4.25;84.00;97004.78;5093753;28;20916;-33
2022/01/15 03:28:52;;;;;;;12.53;7.70;;;;;;;4.21;84.00;97000.91;5094064;28;20449;-32
2022/01/15 03:31:19;;;;;;;16.87;7.90;;;;;;;4.18;84.28;96996.03;5093840;28;20496;-32
2022/01/15 03:33:47;;;;;;;23.73;10.73;;;;;;;4.20;84.42;97001.91;5094037;28;20518;-30
2022/01/15 03:36:14;;;;;;;12.73;7.47;;;;;;;4.15;84.68;96999.03;5093955;28;20449;-30
2022/01/15 03:38:41;;;;;;;12.67;7.10;;;;;;;4.13;84.32;97003.66;5095122;28;20454;-30
2022/01/15 03:41:08;;;;;;;16.83;8.83;;;;;;;4.10;84.45;97005.66;5100978;28;20875;-30
2022/01/15 03:43:37;;;;;;;14.60;8.10;;;;;;;4.11;84.84;97003.88;5114272;28;20438;-30
2022/01/15 03:46:04;;;;;;;15.60;9.60;;;;;;;4.11;84.73;97009.13;5114107;28;20490;-31
2022/01/15 03:48:31;;;;;;;17.43;9.60;;;;;;;4.13;84.58;97022.88;5113715;28;20482;-31
2022/01/15 03:50:59;;;;;;;21.80;11.53;;;;;;;4.13;84.98;97024.69;5113482;28;20448;-30
2022/01/15 03:53:26;;;;;;;20.20;9.67;;;;;;;4.07;84.90;97027.06;5114164;28;20442;-31
2022/01/15 03:55:54;;;;;;;20.03;9.97;;;;;;;4.04;85.33;97029.25;5113760;28;20917;-31
2022/01/15 03:58:22;;;;;;;14.60;8.83;;;;;;;3.97;85.56;97036.28;5113665;28;20553;-32
2022/01/15 04:00:50;;;;;;;28.17;13.53;;;;;;;3.96;85.45;97043.34;5113751;28;20849;-30
2022/01/15 04:03:18;;;;;;;21.03;8.20;;;;;;;3.92;85.65;97049.97;5113766;28;20960;-31
2022/01/15 04:05:45;;;;;;;24.57;13.00;;;;;;;3.91;85.63;97056.22;5114035;28;20478;-31
2022/01/15 04:08:13;;;;;;;19.67;9.30;;;;;;;3.92;86.17;97055.22;5113655;28;20525;-31
2022/01/15 04:10:40;;;;;;;22.53;10.47;;;;;;;3.91;86.25;97077.22;5113608;28;20802;-31
2022/01/15 04:13:08;;;;;;;13.70;8.13;;;;;;;3.78;85.82;97062.16;5113922;28;20452;-31
2022/01/15 04:15:35;;;;;;;16.80;8.80;;;;;;;3.90;86.26;97076.44;5113561;28;20498;-30
2022/01/15 04:18:04;;;;;;;18.17;9.50;;;;;;;3.88;86.21;97093.38;5113585;28;20495;-30
2022/01/15 04:20:31;;;;;;;18.83;11.40;;;;;;;3.87;86.29;97089.94;5113491;28;20442;-31
2022/01/15 04:22:58;;;;;;;16.00;9.20;;;;;;;3.87;86.89;97091.75;5113512;28;20438;-31
2022/01/15 04:25:26;;;;;;;14.90;8.17;;;;;;;3.88;86.55;97103.88;5113781;28;20448;-30
2022/01/15 04:27:56;;;;;;;16.40;8.93;;;;;;;3.87;86.48;97102.25;5113469;28;20493;-31
2022/01/15 04:30:24;;;;;;;17.90;10.17;;;;;;;3.84;86.77;97095.56;5113558;28;20458;-31
2022/01/15 04:32:52;;;;;;;14.90;7.97;;;;;;;3.79;86.79;97095.31;5113828;28;20444;-30
2022/01/15 04:35:21;;;;;;;22.20;10.40;;;;;;;3.74;87.07;97102.09;5113862;28;20469;-31
2022/01/15 04:37:52;;;;;;;19.50;12.17;;;;;;;3.76;87.25;97100.09;5113292;28;20940;-31
2022/01/15 04:40:19;;;;;;;12.57;8.30;;;;;;;3.72;87.32;97111.97;5113418;28;20418;-31
2022/01/15 04:42:47;;;;;;;18.90;10.83;;;;;;;3.72;87.39;97110.16;5113622;28;20448;-31
2022/01/15 04:45:14;;;;;;;23.00;12.33;;;;;;;3.71;87.52;97110.38;5113658;28;20438;-31
2022/01/15 04:47:42;;;;;;;33.57;13.83;;;;;;;3.68;87.45;97101.06;5113233;28;20992;-31
2022/01/15 04:50:12;;;;;;;26.47;12.20;;;;;;;3.69;87.34;97107.91;5113662;28;20469;-31
2022/01/15 04:52:41;;;;;;;23.30;10.50;;;;;;;3.65;87.72;97110.09;5113388;28;20430;-30
2022/01/15 04:55:10;;;;;;;18.20;10.67;;;;;;;3.64;87.73;97124.22;5113593;28;20806;-31
2022/01/15 04:57:37;;;;;;;16.13;9.83;;;;;;;3.63;87.60;97121.78;5113070;28;20478;-31
2022/01/15 05:00:07;;;;;;;22.90;9.93;;;;;;;3.58;88.24;97124.97;5113155;28;20449;-32
2022/01/15 05:02:34;;;;;;;17.83;12.23;;;;;;;3.57;87.79;97128.59;5116024;28;20957;-31
2022/01/15 05:05:02;;;;;;;26.40;11.57;;;;;;;3.60;88.00;97133.47;5117159;28;20437;-31
2022/01/15 05:07:29;;;;;;;29.30;17.00;;;;;;;3.57;88.20;97131.22;5117071;27;20844;-31
2022/01/15 05:09:58;;;;;;;20.50;11.20;;;;;;;3.58;87.91;97135.47;5116808;28;20452;-31
2022/01/15 05:12:29;;;;;;;13.90;11.43;;;;;;;3.58;88.13;97135.47;5116706;28;20438;-31
2022/01/15 05:14:56;;;;;;;39.87;21.50;;;;;;;3.58;88.27;97143.34;5116691;28;20426;-31
2022/01/15 05:17:24;;;;;;;42.00;24.40;;;;;;;3.58;88.34;97135.47;5116665;28;20449;-31
2022/01/15 05:19:52;;;;;;;39.00;22.73;;;;;;;3.57;88.25;97139.09;5116557;28;20649;-31
2022/01/15 05:22:19;;;;;;;22.33;12.07;;;;;;;3.56;88.38;97145.34;5116600;28;20933;-30
2022/01/15 05:24:46;;;;;;;16.57;9.97;;;;;;;3.55;88.35;97148.97;5116550;28;20438;-31
2022/01/15 05:27:15;;;;;;;53.17;33.40;;;;;;;3.58;88.28;97153.84;5116729;28;20489;-31
2022/01/15 05:29:42;;;;;;;50.77;25.30;;;;;;;3.57;88.38;97149.59;5117274;27;20918;-31
2022/01/15 05:32:10;;;;;;;23.73;16.70;;;;;;;3.58;88.10;97148.59;5116383;28;20442;-32
2022/01/15 05:34:37;;;;;;;26.60;15.10;;;;;;;3.58;88.49;97140.72;5116257;28;21013;-31
2022/01/15 05:37:05;;;;;;;31.47;12.63;;;;;;;3.49;88.38;97132.13;5116812;28;20533;-32
2022/01/15 05:39:32;;;;;;;29.67;11.40;;;;;;;3.58;88.20;97150.41;5116202;28;20959;-32
2022/01/15 05:41:59;;;;;;;21.60;13.50;;;;;;;3.53;88.70;97148.34;5116179;28;20445;-32
2022/01/15 05:44:28;;;;;;;27.10;16.77;;;;;;;3.51;88.79;97147.72;5116492;28;20442;-31
2022/01/15 05:46:55;;;;;;;19.87;13.87;;;;;;;3.48;88.84;97146.28;5116109;28;20485;-31
2022/01/15 05:49:23;;;;;;;25.87;14.10;;;;;;;3.46;88.61;97152.66;5104206;28;20446;-31
2022/01/15 05:51:50;;;;;;;24.73;11.60;;;;;;;3.45;88.73;97151.06;5095451;28;20450;-32
2022/01/15 05:54:17;;;;;;;22.70;11.20;;;;;;;3.48;88.82;97156.78;5095547;28;20488;-32
2022/01/15 05:56:44;;;;;;;23.67;13.47;;;;;;;3.45;88.78;97151.88;5095353;28;20488;-32
2022/01/15 05:59:12;;;;;;;20.73;10.97;;;;;;;3.36;88.62;97139.03;5095750;28;20431;-31
2022/01/15 06:01:40;;;;;;;20.97;11.43;;;;;;;3.42;88.66;97140.91;5095866;28;20450;-32
2022/01/15 06:04:07;;;;;;;18.50;10.93;;;;;;;3.38;88.72;97144.91;5095648;28;20442;-32
2022/01/15 06:06:35;;;;;;;24.80;14.57;;;;;;;3.43;88.82;97153.06;5095544;28;20505;-32
2022/01/15 06:09:03;;;;;;;24.17;12.80;;;;;;;3.40;88.44;97154.22;5095185;28;20606;-33
2022/01/15 06:11:30;;;;;;;23.13;11.70;;;;;;;3.37;88.63;97159.03;5095481;28;20447;-33
2022/01/15 06:13:57;;;;;;;23.03;11.57;;;;;;;3.39;88.59;97168.34;5094899;28;20529;-32
2022/01/15 06:16:25;;;;;;;27.80;15.10;;;;;;;3.32;88.99;97161.38;5095028;28;20445;-31
2022/01/15 06:18:53;;;;;;;24.97;14.13;;;;;;;3.35;89.04;97176.75;5095341;28;20504;-32
2022/01/15 06:21:21;;;;;;;24.70;12.80;;;;;;;3.38;88.63;97181.66;5094974;28;20451;-31
2022/01/15 06:23:48;;;;;;;29.90;13.30;;;;;;;3.34;89.12;97183.03;5094851;28;20445;-32
2022/01/15 06:26:15;;;;;;;30.33;13.43;;;;;;;3.19;88.97;97162.81;5094821;28;20443;-32
2022/01/15 06:28:44;;;;;;;22.33;12.10;;;;;;;3.35;89.13;97182.81;5094741;28;20443;-32
2022/01/15 06:31:12;;;;;;;22.90;11.73;;;;;;;3.37;88.82;97195.78;5095121;28;20465;-32
2022/01/15 06:33:39;;;;;;;25.27;10.27;;;;;;;3.34;88.97;97201.41;5094714;28;20923;-32
2022/01/15 06:36:08;;;;;;;25.43;11.90;;;;;;;3.38;88.85;97213.16;5094671;28;20952;-31
2022/01/15 06:38:35;;;;;;;25.60;13.20;;;;;;;3.38;88.77;97218.41;5094425;28;21053;-32
2022/01/15 06:41:02;;;;;;;23.00;15.10;;;;;;;3.40;88.26;97217.22;5095416;28;20779;-30
2022/01/15 06:43:30;;;;;;;36.70;16.77;;;;;;;3.38;88.59;97213.16;5094550;28;20927;-32
2022/01/15 06:45:57;;;;;;;36.10;18.57;;;;;;;3.40;88.69;97227.72;5094403;28;20439;-30
2022/01/15 06:48:24;;;;;;;29.03;12.73;;;;;;;3.34;88.61;97220.56;5095227;28;20499;-31
2022/01/15 06:50:52;;;;;;;29.27;14.80;;;;;;;3.37;88.85;97228.06;5094430;28;20475;-31
2022/01/15 06:53:20;;;;;;;30.60;12.93;;;;;;;3.32;88.91;97237.50;5094591;28;20941;-31
2022/01/15 06:55:51;;;;;;;27.10;13.40;;;;;;;3.35;88.71;97239.75;5094633;28;20560;-31
2022/01/15 06:58:18;;;;;;;31.30;14.07;;;;;;;3.39;88.68;97230.53;5094052;28;20474;-30
2022/01/15 07:00:46;;;;;;;21.00;12.40;;;;;;;3.43;88.34;97223.94;5094197;28;21001;-30
2022/01/15 07:03:13;;;;;;;26.80;12.50;;;;;;;3.45;87.60;97241.13;5094418;28;20546;-31
2022/01/15 07:05:40;;;;;;;26.67;12.80;;;;;;;3.44;88.21;97238.66;5094394;28;20439;-30
2022/01/15 07:08:08;;;;;;;30.10;16.97;;;;;;;3.53;87.54;97237.59;5094574;28;20489;-31
2022/01/15 07:10:39;;;;;;;40.03;18.87;;;;;;;3.52;87.84;97243.03;5094390;28;20439;-31
2022/01/15 07:13:06;;;;;;;22.67;13.37;;;;;;;3.54;87.48;97254.97;5094070;28;20438;-32
2022/01/15 07:15:34;;;;;;;29.23;11.20;;;;;;;3.56;87.46;97253.00;5094037;28;20451;-32
2022/01/15 07:18:01;;;;;;;22.23;12.80;;;;;;;3.50;87.18;97253.69;5093916;28;20453;-32
2022/01/15 07:20:29;;;;;;;30.17;13.37;;;;;;;3.32;86.92;97246.19;5093889;28;20443;-33
2022/01/15 07:23:00;;;;;;;28.53;13.07;;;;;;;3.41;87.35;97260.03;5093933;28;20442;-32
2022/01/15 07:25:27;;;;;;;19.37;13.43;;;;;;;3.40;87.47;97274.97;5093543;28;20496;-31
2022/01/15 07:27:56;;;;;;;32.60;14.80;;;;;;;3.38;87.31;97279.59;5093703;28;21008;-31
2022/01/15 07:30:24;;;;;;;40.93;17.67;;;;;;;3.42;87.47;97282.66;5093486;28;20449;-31
2022/01/15 07:32:51;;;;;;;28.57;16.73;;;;;;;3.43;87.58;97276.44;5093970;28;20471;-31
2022/01/15 07:35:19;;;;;;;30.03;14.10;;;;;;;3.43;87.86;97276.44;5093594;28;20934;-31
2022/01/15 07:37:46;;;;;;;32.33;17.30;;;;;;;3.48;87.58;97287.19;5093927;28;20441;-32
2022/01/15 07:40:14;;;;;;;27.10;12.07;;;;;;;3.48;87.68;97292.44;5093933;28;20443;-31
2022/01/15 07:42:41;;;;;;;49.63;22.53;;;;;;;3.44;87.46;97302.50;5093483;28;20445;-31
2022/01/15 07:45:13;;;;;;;49.23;22.30;;;;;;;3.44;87.79;97302.50;5093499;28;20964;-31
2022/01/15 07:47:41;;;;;;;49.80;23.47;;;;;;;3.30;87.68;97279.66;5093358;28;20849;-32
2022/01/15 07:50:11;;;;;;;108.27;45.27;;;;;;;3.53;87.41;97305.88;5093417;28;20809;-31
2022/01/15 07:52:38;;;;;;;27.50;15.17;;;;;;;3.60;87.34;97306.78;5093427;28;20911;-32
2022/01/15 07:55:07;;;;;;;82.13;27.33;;;;;;;3.71;86.92;97307.34;5093412;28;20435;-31
2022/01/15 07:57:34;;;;;;;85.73;30.80;;;;;;;3.80;86.57;97312.31;5093120;28;20970;-31
2022/01/15 08:00:02;;;;;;;62.37;29.07;;;;;;;3.92;86.39;97314.50;5093314;28;20442;-31
2022/01/15 08:02:30;;;;;;;158.30;55.30;;;;;;;4.12;85.57;97317.41;5093238;28;21006;-31
2022/01/15 08:04:58;;;;;;;157.10;46.10;;;;;;;4.38;85.56;97320.34;5093610;28;20910;-31
2022/01/15 08:07:25;;;;;;;181.03;52.60;;;;;;;4.59;84.56;97314.31;5093221;28;20483;-31
2022/01/15 08:09:52;;;;;;;41.83;23.93;;;;;;;4.60;83.19;97292.25;5093049;28;21012;-31
2022/01/15 08:12:21;;;;;;;53.50;21.67;;;;;;;4.79;81.94;97306.63;5093673;28;20438;-31
2022/01/15 08:14:49;;;;;;;45.13;20.10;;;;;;;4.95;82.91;97310.03;5093126;28;20443;-31
2022/01/15 08:17:16;;;;;;;40.20;18.00;;;;;;;4.89;81.85;97322.94;5093152;28;20443;-33
2022/01/15 08:19:45;;;;;;;35.00;17.50;;;;;;;4.77;82.11;97316.53;5093464;28;20450;-31
2022/01/15 08:22:12;;;;;;;40.60;18.60;;;;;;;4.70;81.85;97318.28;5093190;28;20954;-31
2022/01/15 08:24:39;;;;;;;51.87;17.80;;;;;;;4.62;81.95;97321.03;5093112;28;20449;-31
2022/01/15 08:27:07;;;;;;;44.93;18.40;;;;;;;4.58;82.44;97330.28;5093314;28;20805;-30
2022/01/15 08:29:34;;;;;;;42.17;16.83;;;;;;;4.63;82.41;97341.06;5093371;28;20931;-31
2022/01/15 08:32:02;;;;;;;37.40;16.97;;;;;;;4.70;81.87;97328.81;5093416;28;20443;-31
2022/01/15 08:34:29;;;;;;;63.13;21.80;;;;;;;4.97;81.67;97339.59;5093333;28;20887;-32
2022/01/15 08:36:59;;;;;;;53.30;24.37;;;;;;;5.15;80.66;97340.00;5094641;28;20945;-30
2022/01/15 08:39:26;;;;;;;51.97;21.40;;;;;;;5.38;80.72;97352.13;5097247;28;20454;-30
2022/01/15 08:41:53;;;;;;;52.87;23.13;;;;;;;5.57;79.25;97346.25;5096859;28;20516;-31
2022/01/15 08:44:24;;;;;;;61.90;24.40;;;;;;;5.69;79.38;97355.22;5097215;28;20442;-30
2022/01/15 08:46:51;;;;;;;55.97;25.30;;;;;;;5.82;78.65;97348.44;5097063;28;20451;-31
2022/01/15 08:49:19;;;;;;;50.87;21.90;;;;;;;5.94;76.94;97354.81;5096679;28;20443;-31
2022/01/15 08:51:46;;;;;;;64.03;27.80;;;;;;;5.84;76.75;97354.31;5096659;28;20442;-31
2022/01/15 08:54:15;;;;;;;55.17;23.80;;;;;;;5.66;77.02;97360.88;5096713;28;20454;-31
2022/01/15 08:56:43;;;;;;;61.33;25.80;;;;;;;5.47;77.39;97362.34;5096396;28;20479;-31
2022/01/15 08:59:10;;;;;;;68.30;24.40;;;;;;;5.33;77.59;97361.44;5096551;28;20864;-31
2022/01/15 09:01:37;;;;;;;45.47;19.53;;;;;;;5.48;78.31;97374.50;5096433;28;20447;-31
2022/01/15 09:04:05;;;;;;;28.40;14.40;;;;;;;5.60;77.46;97350.31;5096381;28;20443;-31
2022/01/15 09:06:32;;;;;;;56.73;21.40;;;;;;;5.51;77.37;97353.06;5096628;28;20438;-31
2022/01/15 09:09:00;;;;;;;95.80;36.10;;;;;;;5.55;77.76;97358.78;5096593;28;20540;-31
2022/01/15 09:11:28;;;;;;;54.00;21.80;;;;;;;5.64;77.27;97352.38;5096332;28;20922;-31
2022/01/15 09:13:55;;;;;;;72.77;27.80;;;;;;;5.78;76.92;97358.53;5096240;28;20443;-32
2022/01/15 09:16:23;;;;;;;85.83;27.97;;;;;;;5.88;77.02;97363.47;5096243;28;20469;-30
2022/01/15 09:18:51;;;;;;;80.73;28.93;;;;;;;5.99;76.07;97355.06;5096490;28;20476;-30
2022/01/15 09:21:18;;;;;;;88.03;28.03;;;;;;;6.06;75.23;97365.66;5096449;28;20485;-30
2022/01/15 09:23:46;;;;;;;73.30;28.23;;;;;;;6.09;75.18;97366.09;5096350;28;20443;-31
2022/01/15 09:26:20;;;;;;;33.37;19.37;;;;;;;6.04;75.26;97359.75;5096012;28;20973;-30
2022/01/15 09:31:34;;;;;;;71.90;31.10;;;;;;;5.92;74.48;97367.38;5096342;28;20492;-31
2022/01/15 09:34:02;;;;;;;60.63;25.53;;;;;;;5.81;75.00;97349.41;5095863;28;20453;-30
2022/01/15 09:36:29;;;;;;;35.43;19.33;;;;;;;5.88;75.27;97366.91;5096214;28;20446;-31
2022/01/15 09:38:56;;;;;;;35.93;17.47;;;;;;;5.89;75.18;97362.47;5095798;28;20789;-33
2022/01/15 09:41:26;;;;;;;53.20;22.07;;;;;;;5.92;75.74;97359.44;5096620;28;20525;-30
2022/01/15 09:43:54;;;;;;;34.93;17.83;;;;;;;5.92;75.26;97356.81;5095767;28;20446;-30
2022/01/15 09:46:23;;;;;;;38.67;18.43;;;;;;;6.10;75.33;97353.72;5096162;28;20453;-30
2022/01/15 09:48:50;;;;;;;51.27;22.90;;;;;;;6.23;75.00;97350.34;5095055;28;20573;-31
2022/01/15 09:51:18;;;;;;;68.37;29.17;;;;;;;6.36;73.91;97345.13;5096049;28;20453;-31
2022/01/15 09:53:45;;;;;;;74.37;32.13;;;;;;;6.48;73.17;97343.56;5095280;28;20446;-32
2022/01/15 09:56:12;;;;;;;65.87;23.30;;;;;;;6.55;72.73;97352.31;5095479;28;20473;-30
2022/01/15 09:58:39;;;;;;;61.00;25.20;;;;;;;6.67;72.60;97343.84;5095266;28;20567;-31
2022/01/15 10:01:08;;;;;;;59.23;23.73;;;;;;;6.74;71.97;97344.66;5095319;28;20624;-32
2022/01/15 10:03:35;;;;;;;58.67;25.70;;;;;;;6.76;72.56;97340.00;5095337;28;20439;-32
2022/01/15 10:06:06;;;;;;;56.77;21.10;;;;;;;6.80;71.22;97349.16;5095355;28;20450;-31
2022/01/15 10:08:34;;;;;;;46.87;21.63;;;;;;;6.82;71.75;97348.94;5095100;28;20493;-31
2022/01/15 10:11:07;;;;;;;51.10;24.13;;;;;;;6.82;71.01;97355.06;5095161;28;20435;-32
2022/01/15 10:13:44;;;;;;;44.60;19.23;;;;;;;6.88;71.26;97337.59;5095474;28;20807;-31
2022/01/15 10:16:18;;;;;;;68.97;24.97;;;;;;;6.83;71.31;97351.38;5095201;28;20833;-32
2022/01/15 10:18:47;;;;;;;59.27;25.80;;;;;;;6.81;71.09;97356.06;5095121;28;20446;-32
2022/01/15 10:21:17;;;;;;;52.87;21.73;;;;;;;6.96;71.19;97345.34;5094938;28;20531;-32
2022/01/15 10:23:49;;;;;;;41.93;18.03;;;;;;;6.87;70.89;97336.78;5095251;28;20450;-31
2022/01/15 10:26:18;;;;;;;65.13;27.37;;;;;;;6.77;71.42;97352.19;5094831;28;20525;-31
2022/01/15 10:28:54;;;;;;;42.17;19.17;;;;;;;6.56;71.21;97345.22;5094592;28;20564;-31
2022/01/15 10:31:24;;;;;;;43.90;24.87;;;;;;;6.54;71.78;97344.59;5095154;28;20427;-32
2022/01/15 10:33:52;;;;;;;33.87;21.40;;;;;;;6.48;71.16;97338.28;5095077;28;20450;-31
2022/01/15 10:36:21;;;;;;;29.30;16.93;;;;;;;6.47;72.23;97341.91;5093088;28;20474;-33
2022/01/15 10:38:48;;;;;;;25.67;14.60;;;;;;;6.59;71.51;97344.00;5090756;28;20492;-32
2022/01/15 10:41:31;;;;;;;22.33;12.17;;;;;;;6.60;72.51;97332.44;5093118;28;20509;-32
2022/01/15 10:43:59;;;;;;;27.37;13.20;;;;;;;6.56;72.28;97322.28;5092377;28;20450;-31
2022/01/15 10:46:37;;;;;;;64.60;26.50;;;;;;;6.53;72.10;97321.84;5094510;28;20443;-32
2022/01/15 10:49:25;;;;;;;31.03;16.87;;;;;;;6.47;73.22;97315.53;5094710;28;20490;-31
2022/01/15 10:52:13;;;;;;;27.97;14.33;;;;;;;6.36;72.56;97313.47;5094347;28;20439;-31
2022/01/15 10:55:00;;;;;;;30.73;15.30;;;;;;;6.23;72.80;97318.69;5094927;28;20772;-32
2022/01/15 10:57:30;;;;;;;39.13;17.60;;;;;;;6.19;73.18;97301.63;5094126;28;21076;-30
2022/01/15 11:00:06;;;;;;;26.47;13.70;;;;;;;6.24;73.20;97304.47;5093790;28;20898;-32
2022/01/15 11:02:35;;;;;;;24.37;12.03;;;;;;;6.33;72.55;97304.13;5094589;28;20431;-32
2022/01/15 11:05:03;;;;;;;15.37;10.23;;;;;;;6.25;72.04;97311.41;5094180;28;20439;-32
2022/01/15 11:07:36;;;;;;;30.07;11.83;;;;;;;6.26;72.41;97310.38;5094152;28;20454;-33
2022/01/15 11:10:13;;;;;;;26.60;14.00;;;;;;;6.16;72.73;97308.13;5094540;28;20431;-31
2022/01/15 11:12:50;;;;;;;20.70;11.93;;;;;;;5.36;71.33;97249.66;5094013;28;20458;-31
2022/01/15 11:15:18;;;;;;;26.50;14.93;;;;;;;6.02;71.60;97312.47;5094127;28;20841;-30
2022/01/15 11:17:47;;;;;;;21.53;15.23;;;;;;;5.94;72.76;97310.84;5093910;28;20443;-31
2022/01/15 11:20:18;;;;;;;24.63;13.83;;;;;;;5.96;73.38;97308.03;5094353;28;20443;-31
2022/01/15 11:22:48;;;;;;;18.53;12.20;;;;;;;5.98;72.97;97300.72;5094364;28;20443;-30
2022/01/15 11:25:16;;;;;;;22.80;10.53;;;;;;;6.06;72.35;97312.91;5094134;28;20442;-31
2022/01/15 11:27:43;;;;;;;22.50;12.27;;;;;;;6.23;72.29;97305.50;5094020;28;20439;-31
2022/01/15 11:30:21;;;;;;;21.77;13.90;;;;;;;6.23;71.71;97284.41;5094268;28;20469;-31
2022/01/15 11:32:56;;;;;;;17.53;12.40;;;;;;;6.51;71.16;97295.66;5094828;28;20441;-31
2022/01/15 11:35:38;;;;;;;20.77;12.60;;;;;;;6.54;71.02;97295.28;5094121;28;20915;-31
2022/01/15 11:38:06;;;;;;;19.50;9.13;;;;;;;6.72;70.64;97304.47;5093761;28;20426;-31
2022/01/15 11:40:40;;;;;;;18.20;12.07;;;;;;;6.83;70.55;97288.03;5094027;28;20534;-31
2022/01/15 11:43:53;;;;;;;28.17;15.00;;;;;;;6.94;70.63;97294.56;5093647;28;20431;-31
2022/01/15 11:46:28;;;;;;;25.93;13.00;;;;;;;6.96;69.71;97292.53;5093627;28;20467;-31
2022/01/15 11:49:31;;;;;;;20.43;11.50;;;;;;;6.86;70.09;97292.94;5093846;28;20478;-31